createdAt,value
2023-02-06T00:01:08.841Z,23.40
2023-02-06T00:04:30.657Z,4.18
2023-02-06T00:07:52.493Z,4.22
2023-02-06T00:11:18.078Z,6.30
2023-02-06T00:14:39.646Z,8.57
2023-02-06T00:18:01.873Z,4.53
2023-02-06T00:21:26.031Z,8.10
2023-02-06T00:24:48.326Z,5.88
2023-02-06T00:28:11.951Z,10.73
2023-02-06T00:31:34.005Z,4.20
2023-02-06T00:34:55.972Z,6.30
2023-02-06T00:38:18.096Z,5.80
2023-02-06T00:41:39.736Z,4.20
2023-02-06T00:45:03.067Z,7.57
2023-02-06T00:48:25.328Z,3.70
2023-02-06T00:51:47.247Z,4.28
2023-02-06T00:55:09.334Z,10.95
2023-02-06T00:58:31.496Z,6.35
2023-02-06T01:01:54.738Z,7.80
2023-02-06T01:05:16.813Z,6.18
2023-02-06T01:08:38.694Z,6.15
2023-02-06T01:12:00.709Z,5.20
2023-02-06T01:15:22.741Z,4.82
2023-02-06T01:18:45.996Z,5.75
2023-02-06T01:22:08.299Z,7.25
2023-02-06T01:25:30.870Z,9.68
2023-02-06T01:28:52.732Z,6.57
2023-02-06T01:32:15.005Z,6.05
2023-02-06T01:35:38.331Z,6.90
2023-02-06T01:39:00.424Z,4.40
2023-02-06T01:42:22.328Z,9.63
2023-02-06T01:45:46.393Z,6.38
2023-02-06T01:49:11.766Z,2.70
2023-02-06T01:52:35.090Z,4.82
2023-02-06T01:56:01.234Z,6.28
2023-02-06T01:59:24.430Z,5.20
2023-02-06T02:02:49.685Z,9.30
2023-02-06T02:06:14.179Z,8.40
2023-02-06T02:09:38.307Z,7.60
2023-02-06T02:13:00.477Z,6.80
2023-02-06T02:16:28.246Z,9.45
2023-02-06T02:20:29.156Z,8.30
2023-02-06T02:23:58.416Z,11.90
2023-02-06T02:27:44.790Z,4.55
2023-02-06T02:31:28.704Z,6.13
2023-02-06T02:35:07.945Z,5.72
2023-02-06T02:38:42.772Z,15.40
2023-02-06T02:42:13.063Z,6.22
2023-02-06T02:45:41.713Z,17.38
2023-02-06T02:49:08.543Z,6.13
2023-02-06T02:52:31.664Z,7.80
2023-02-06T02:55:53.898Z,7.30
2023-02-06T02:59:23.884Z,11.95
2023-02-06T03:02:48.275Z,7.22
2023-02-06T03:06:28.186Z,8.60
2023-02-06T03:10:01.971Z,10.60
2023-02-06T03:13:31.086Z,9.00
2023-02-06T03:16:59.739Z,9.30
2023-02-06T03:20:23.071Z,11.07
2023-02-06T03:23:48.429Z,7.47
2023-02-06T03:27:15.228Z,6.53
2023-02-06T03:30:40.131Z,11.55
2023-02-06T03:34:08.472Z,4.75
2023-02-06T03:37:31.163Z,12.10
2023-02-06T03:40:56.057Z,10.65
2023-02-06T03:44:23.657Z,8.00
2023-02-06T03:47:48.009Z,8.30
2023-02-06T03:51:13.634Z,8.88
2023-02-06T03:54:40.562Z,5.38
2023-02-06T03:58:06.511Z,11.98
2023-02-06T04:01:30.378Z,10.63
2023-02-06T04:04:52.575Z,9.18
2023-02-06T04:08:14.655Z,4.68
2023-02-06T04:11:36.654Z,9.45
2023-02-06T04:14:58.550Z,4.70
2023-02-06T04:18:21.709Z,7.93
2023-02-06T04:21:43.845Z,4.93
2023-02-06T04:25:05.956Z,7.70
2023-02-06T04:28:28.279Z,10.70
2023-02-06T04:31:50.261Z,6.25
2023-02-06T04:35:13.665Z,7.30
2023-02-06T04:38:35.373Z,7.97
2023-02-06T04:41:57.582Z,7.55
2023-02-06T04:45:19.414Z,4.45
2023-02-06T04:48:41.145Z,7.60
2023-02-06T04:52:04.526Z,9.82
2023-02-06T04:55:26.376Z,5.68
2023-02-06T04:58:48.707Z,6.90
2023-02-06T05:02:10.568Z,7.57
2023-02-06T05:05:32.547Z,16.70
2023-02-06T05:08:55.860Z,13.80
2023-02-06T05:12:18.300Z,14.05
2023-02-06T05:15:40.826Z,9.27
2023-02-06T05:19:02.931Z,11.88
2023-02-06T05:22:24.815Z,6.85
2023-02-06T05:25:49.392Z,5.03
2023-02-06T05:29:11.181Z,8.05
2023-02-06T05:32:33.324Z,5.07
2023-02-06T05:35:55.123Z,10.80
2023-02-06T05:39:17.044Z,14.25
2023-02-06T05:42:40.501Z,4.85
2023-02-06T05:46:03.161Z,8.30
2023-02-06T05:49:25.037Z,7.32
2023-02-06T05:52:47.033Z,7.03
2023-02-06T05:56:09.161Z,12.23
2023-02-06T05:59:32.361Z,14.40
2023-02-06T06:02:54.599Z,7.78
2023-02-06T06:06:16.472Z,9.25
2023-02-06T06:09:38.609Z,11.07
2023-02-06T06:13:00.717Z,9.80
2023-02-06T06:16:24.195Z,10.48
2023-02-06T06:19:46.227Z,12.20
2023-02-06T06:23:09.475Z,9.23
2023-02-06T06:26:31.740Z,8.68
2023-02-06T06:29:53.888Z,13.75
2023-02-06T06:33:17.976Z,13.40
2023-02-06T06:36:40.145Z,13.18
2023-02-06T06:40:02.088Z,8.68
2023-02-06T06:43:25.948Z,11.40
2023-02-06T06:46:48.045Z,8.88
2023-02-06T06:50:11.623Z,14.98
2023-02-06T06:53:33.708Z,9.20
2023-02-06T06:56:55.718Z,11.73
2023-02-06T07:00:18.147Z,14.00
2023-02-06T07:03:40.051Z,13.18
2023-02-06T07:07:03.402Z,19.77
2023-02-06T07:10:25.215Z,15.77
2023-02-06T07:13:47.269Z,19.45
2023-02-06T07:17:09.309Z,17.65
2023-02-06T07:20:31.034Z,16.42
2023-02-06T07:23:54.408Z,10.93
2023-02-06T07:27:16.727Z,16.80
2023-02-06T07:30:38.962Z,16.98
2023-02-06T07:34:02.393Z,10.77
2023-02-06T07:37:24.309Z,11.93
2023-02-06T07:40:47.624Z,7.25
2023-02-06T07:44:09.151Z,9.38
2023-02-06T07:47:30.990Z,16.48
2023-02-06T07:50:53.104Z,9.73
2023-02-06T07:54:15.197Z,12.73
2023-02-06T07:57:38.612Z,5.97
2023-02-06T08:01:05.319Z,12.70
2023-02-06T08:04:29.490Z,11.77
2023-02-06T08:07:52.095Z,9.05
2023-02-06T08:11:15.761Z,11.32
2023-02-06T08:14:39.212Z,12.32
2023-02-06T08:18:01.381Z,11.70
2023-02-06T08:21:25.588Z,15.38
2023-02-06T08:24:48.296Z,15.13
2023-02-06T08:28:10.291Z,10.10
2023-02-06T08:31:36.099Z,12.63
2023-02-06T08:34:57.832Z,13.50
2023-02-06T08:38:19.732Z,10.68
2023-02-06T08:41:43.677Z,6.70
2023-02-06T08:45:06.639Z,9.32
2023-02-06T08:48:29.901Z,10.90
2023-02-06T08:51:51.690Z,9.73
2023-02-06T08:55:13.521Z,13.02
2023-02-06T08:58:36.071Z,5.18
2023-02-06T09:01:57.958Z,8.52
2023-02-06T09:05:21.615Z,8.55
2023-02-06T09:08:44.789Z,6.63
2023-02-06T09:12:07.015Z,7.90
2023-02-06T09:15:29.221Z,10.32
2023-02-06T09:18:54.195Z,13.63
2023-02-06T09:22:18.665Z,9.75
2023-02-06T09:25:40.672Z,6.28
2023-02-06T09:29:05.658Z,8.82
2023-02-06T09:32:27.380Z,7.25
2023-02-06T09:35:49.575Z,11.63
2023-02-06T09:39:13.112Z,8.85
2023-02-06T09:42:39.885Z,8.70
2023-02-06T09:46:06.503Z,60.30
2023-02-06T09:49:36.925Z,21.98
2023-02-06T09:53:07.654Z,13.90
2023-02-06T09:56:39.857Z,9.77
2023-02-06T10:00:07.443Z,9.75
2023-02-06T10:03:43.079Z,6.80
2023-02-06T10:07:18.861Z,6.65
2023-02-06T10:10:44.995Z,7.90
2023-02-06T10:14:19.197Z,11.23
2023-02-06T10:17:53.618Z,9.77
2023-02-06T10:21:26.931Z,6.63
2023-02-06T10:24:59.089Z,15.57
2023-02-06T10:28:27.045Z,13.60
2023-02-06T10:32:09.773Z,8.68
2023-02-06T10:35:41.950Z,10.47
2023-02-06T10:39:36.842Z,11.07
2023-02-06T10:43:04.567Z,11.35
2023-02-06T10:46:38.878Z,15.68
2023-02-06T10:50:12.308Z,10.90
2023-02-06T10:53:37.446Z,9.38
2023-02-06T10:57:01.066Z,10.00
2023-02-06T11:00:26.175Z,11.45
2023-02-06T11:03:53.799Z,8.98
2023-02-06T11:07:22.760Z,6.95
2023-02-06T11:10:46.516Z,14.47
2023-02-06T11:14:15.369Z,10.20
2023-02-06T11:17:37.410Z,9.60
2023-02-06T11:20:59.830Z,8.05
2023-02-06T11:24:24.636Z,6.88
2023-02-06T11:27:47.018Z,6.55
2023-02-06T11:31:10.577Z,4.32
2023-02-06T11:34:35.757Z,9.65
2023-02-06T11:38:09.413Z,4.30
2023-02-06T11:41:33.822Z,6.05
2023-02-06T11:44:55.905Z,6.13
2023-02-06T11:48:33.539Z,7.38
2023-02-06T11:51:56.839Z,6.43
2023-02-06T11:55:23.632Z,6.75
2023-02-06T11:58:47.253Z,16.58
2023-02-06T12:02:28.153Z,8.07
2023-02-06T12:05:50.184Z,9.63
2023-02-06T12:09:13.737Z,10.98
2023-02-06T12:12:40.195Z,8.60
2023-02-06T12:16:07.061Z,18.23
2023-02-06T12:19:33.818Z,28.48
2023-02-06T12:22:58.821Z,12.35
2023-02-06T12:26:23.623Z,19.70
2023-02-06T12:29:50.399Z,9.50
2023-02-06T12:33:18.586Z,18.65
2023-02-06T12:36:53.524Z,15.45
2023-02-06T12:40:26.454Z,14.25
2023-02-06T12:43:54.760Z,14.27
2023-02-06T12:47:23.796Z,9.13
2023-02-06T12:50:51.314Z,8.38
2023-02-06T12:54:18.886Z,5.50
2023-02-06T12:57:41.510Z,13.25
2023-02-06T13:01:29.970Z,17.40
2023-02-06T13:04:55.424Z,21.23
2023-02-06T13:08:22.411Z,14.57
2023-02-06T13:11:45.070Z,23.13
2023-02-06T13:15:09.653Z,8.73
2023-02-06T13:19:02.923Z,18.95
2023-02-06T13:22:46.859Z,10.45
2023-02-06T13:26:10.348Z,11.07
2023-02-06T13:29:34.995Z,11.88
2023-02-06T13:32:58.045Z,9.73
2023-02-06T13:36:26.941Z,6.82
2023-02-06T13:39:50.418Z,6.07
2023-02-06T13:43:20.510Z,11.18
2023-02-06T13:47:22.738Z,13.80
2023-02-06T13:50:59.604Z,12.38
2023-02-06T13:54:35.834Z,17.08
2023-02-06T13:58:20.993Z,20.48
2023-02-06T14:01:43.046Z,18.95
2023-02-06T14:05:07.483Z,17.55
2023-02-06T14:08:45.038Z,14.88
2023-02-06T14:12:34.412Z,10.20
2023-02-06T14:16:06.145Z,11.90
2023-02-06T14:19:35.803Z,9.77
2023-02-06T14:23:10.884Z,12.43
2023-02-06T14:26:42.363Z,14.02
2023-02-06T14:30:19.945Z,25.27
2023-02-06T14:33:55.836Z,15.40
2023-02-06T14:37:37.620Z,17.67
2023-02-06T14:41:02.040Z,12.68
2023-02-06T14:44:28.435Z,18.65
2023-02-06T14:47:54.604Z,14.50
2023-02-06T14:51:25.079Z,7.30
2023-02-06T14:54:46.821Z,7.18
2023-02-06T14:58:20.893Z,6.13
2023-02-06T15:01:44.050Z,15.70
2023-02-06T15:05:07.258Z,10.43
2023-02-06T15:08:32.569Z,14.07
2023-02-06T15:11:57.476Z,16.35
2023-02-06T15:15:21.530Z,31.27
2023-02-06T15:18:43.425Z,38.15
2023-02-06T15:22:08.146Z,50.33
2023-02-06T15:25:41.532Z,30.48
2023-02-06T15:29:06.464Z,61.53
2023-02-06T15:32:30.798Z,90.18
2023-02-06T15:35:54.455Z,134.55
2023-02-06T15:39:17.985Z,44.10
2023-02-06T15:42:41.725Z,24.15
2023-02-06T15:46:06.816Z,22.88
2023-02-06T15:49:38.239Z,30.88
2023-02-06T15:53:00.895Z,27.40
2023-02-06T15:56:27.488Z,27.92
2023-02-06T15:59:50.890Z,20.58
2023-02-06T16:03:20.078Z,14.27
2023-02-06T16:06:42.294Z,17.58
2023-02-06T16:10:22.378Z,20.70
2023-02-06T16:13:47.265Z,29.55
2023-02-06T16:17:26.794Z,22.58
2023-02-06T16:20:49.407Z,23.17
2023-02-06T16:24:17.638Z,34.88
2023-02-06T16:27:45.303Z,30.48
2023-02-06T16:31:07.276Z,27.67
2023-02-06T16:34:42.427Z,30.10
2023-02-06T16:38:04.182Z,21.75
2023-02-06T16:41:33.073Z,27.27
2023-02-06T16:44:59.865Z,38.13
2023-02-06T16:48:21.890Z,55.88
2023-02-06T16:51:46.723Z,65.70
2023-02-06T16:55:17.590Z,37.72
2023-02-06T16:58:39.636Z,80.65
2023-02-06T17:02:01.612Z,62.38
2023-02-06T17:05:25.458Z,43.63
2023-02-06T17:08:49.339Z,46.20
2023-02-06T17:12:15.332Z,33.03
2023-02-06T17:15:37.934Z,21.90
2023-02-06T17:18:59.697Z,30.77
2023-02-06T17:22:21.577Z,53.65
2023-02-06T17:25:45.986Z,36.28
2023-02-06T17:29:07.682Z,39.45
2023-02-06T17:32:29.438Z,30.02
2023-02-06T17:35:51.636Z,28.40
2023-02-06T17:39:14.088Z,42.97
2023-02-06T17:42:37.169Z,43.63
2023-02-06T17:45:59.190Z,35.42
2023-02-06T17:49:21.072Z,47.33
2023-02-06T17:52:43.057Z,41.13
2023-02-06T17:56:06.986Z,41.88
2023-02-06T17:59:30.270Z,29.42
2023-02-06T18:02:52.984Z,17.75
2023-02-06T18:06:15.544Z,20.17
2023-02-06T18:09:38.137Z,21.60
2023-02-06T18:13:02.237Z,18.00
2023-02-06T18:16:28.206Z,16.63
2023-02-06T18:19:50.835Z,20.38
2023-02-06T18:23:13.428Z,20.75
2023-02-06T18:26:35.866Z,14.70
2023-02-06T18:29:57.664Z,20.17
2023-02-06T18:33:21.083Z,14.43
2023-02-06T18:36:43.381Z,29.75
2023-02-06T18:40:06.036Z,17.73
2023-02-06T18:43:29.335Z,29.85
2023-02-06T18:46:51.878Z,38.55
2023-02-06T18:50:17.654Z,30.42
2023-02-06T18:53:39.428Z,39.03
2023-02-06T18:57:01.738Z,36.38
2023-02-06T19:00:24.910Z,25.10
2023-02-06T19:03:47.372Z,20.67
2023-02-06T19:07:11.847Z,15.88
2023-02-06T19:10:33.728Z,16.38
2023-02-06T19:13:56.258Z,19.63
2023-02-06T19:17:18.189Z,22.05
2023-02-06T19:20:42.706Z,17.65
2023-02-06T19:24:06.831Z,14.85
2023-02-06T19:27:28.873Z,15.57
2023-02-06T19:30:51.208Z,16.27
2023-02-06T19:34:13.216Z,12.68
2023-02-06T19:37:35.285Z,12.75
2023-02-06T19:40:58.508Z,11.55
2023-02-06T19:44:20.464Z,7.78
2023-02-06T19:47:43.244Z,11.98
2023-02-06T19:51:06.957Z,17.10
2023-02-06T19:54:29.477Z,15.85
2023-02-06T19:57:53.903Z,8.98
2023-02-06T20:01:17.868Z,39.63
2023-02-06T20:04:40.682Z,27.58
2023-02-06T20:08:02.577Z,23.85
2023-02-06T20:11:24.562Z,19.98
2023-02-06T20:14:48.072Z,22.30
2023-02-06T20:18:09.823Z,22.95
2023-02-06T20:21:34.321Z,19.08
2023-02-06T20:24:56.410Z,16.85
2023-02-06T20:28:18.701Z,18.67
2023-02-06T20:31:42.256Z,23.67
2023-02-06T20:35:04.315Z,18.63
2023-02-06T20:38:26.322Z,23.30
2023-02-06T20:41:49.641Z,19.08
2023-02-06T20:45:12.548Z,14.60
2023-02-06T20:48:36.695Z,11.02
2023-02-06T20:51:58.547Z,14.57
2023-02-06T20:55:20.557Z,13.75
2023-02-06T20:58:43.128Z,17.67
2023-02-06T21:02:05.179Z,16.00
2023-02-06T21:05:28.824Z,18.23
2023-02-06T21:08:52.972Z,26.67
2023-02-06T21:12:14.984Z,22.45
2023-02-06T21:15:37.198Z,24.35
2023-02-06T21:19:00.236Z,18.23
2023-02-06T21:22:23.791Z,14.75
2023-02-06T21:25:52.212Z,25.85
2023-02-06T21:29:16.042Z,15.73
2023-02-06T21:32:38.080Z,18.50
2023-02-06T21:36:00.035Z,14.63
2023-02-06T21:39:27.275Z,26.92
2023-02-06T21:42:49.491Z,28.30
2023-02-06T21:46:13.044Z,29.08
2023-02-06T21:49:35.368Z,20.92
2023-02-06T21:52:57.460Z,40.20
2023-02-06T21:56:23.515Z,24.10
2023-02-06T21:59:45.486Z,20.48
2023-02-06T22:03:07.547Z,24.50
2023-02-06T22:06:29.874Z,30.90
2023-02-06T22:09:52.006Z,18.85
2023-02-06T22:13:15.508Z,18.52
2023-02-06T22:16:37.715Z,18.88
2023-02-06T22:19:59.805Z,16.98
2023-02-06T22:23:21.654Z,8.65
2023-02-06T22:26:44.435Z,8.45
2023-02-06T22:30:09.095Z,5.95
2023-02-06T22:33:30.761Z,11.18
2023-02-06T22:36:52.854Z,11.35
2023-02-06T22:40:14.730Z,7.60
2023-02-06T22:43:38.786Z,10.65
2023-02-06T22:47:02.309Z,4.90
2023-02-06T22:50:24.802Z,9.80
2023-02-06T22:53:46.802Z,11.02
2023-02-06T22:57:08.651Z,13.65
2023-02-06T23:00:30.772Z,15.30
2023-02-06T23:03:58.247Z,15.35
2023-02-06T23:07:21.210Z,7.20
2023-02-06T23:10:50.235Z,12.63
2023-02-06T23:14:15.117Z,17.30
2023-02-06T23:17:38.494Z,14.13
2023-02-06T23:21:05.955Z,5.35
2023-02-06T23:24:28.913Z,9.68
2023-02-06T23:27:51.687Z,10.95
2023-02-06T23:31:16.859Z,9.50
2023-02-06T23:34:40.128Z,17.65
2023-02-06T23:38:04.948Z,16.88
2023-02-06T23:41:30.582Z,10.07
2023-02-06T23:44:53.121Z,10.60
2023-02-06T23:48:15.811Z,12.15
2023-02-06T23:51:39.850Z,8.98
2023-02-06T23:55:04.458Z,11.68
2023-02-06T23:58:28.644Z,11.23
